Negril, Jamaica
Current Conditions -  °F | °C
As of 9:00 PM on Friday 28 Nov 2014 (Local Time) from MKJS Reporting Station
Broken Clouds Broken Clouds  
Wind Chill: 79°   Ceiling: 2000
Heat Index: 82°   Visibility: 6mi
Dew Point: 75°   Wind: 18mph
Humidity: 89%   Direction: 50°NE
Pressure: 29.94"   Gusts: NA
Location:  18.27°N, 78.35°W
Report Text: MKJS 290200Z 05016KT 9999 BKN020 FEW022CB 26/24 Q1014
Loading
Personal Weather Stations






























Interactive Weather Map New forecast layout! Learn more

10-Day Weather Forecast

Advertisements
Track Severe Weather on mobile